sensor_id;sensor_type;location;lat;lon;timestamp;pressure;altitude;pressure_sealevel;temperature;humidity
58367;BME280;57745;42.524;12.052;2022-10-04T00:02:55;97125.81;;;24.15;46.12
58367;BME280;57745;42.524;12.052;2022-10-04T00:05:24;97128.06;;;24.17;46.04
58367;BME280;57745;42.524;12.052;2022-10-04T00:07:57;97119.53;;;24.20;46.00
58367;BME280;57745;42.524;12.052;2022-10-04T00:10:28;97120.75;;;24.14;46.17
58367;BME280;57745;42.524;12.052;2022-10-04T00:12:59;97119.25;;;24.13;46.12
58367;BME280;57745;42.524;12.052;2022-10-04T00:15:37;97116.47;;;24.13;46.20
58367;BME280;57745;42.524;12.052;2022-10-04T00:25:47;97122.53;;;24.17;45.81
58367;BME280;57745;42.524;12.052;2022-10-04T00:30:40;97120.75;;;24.14;45.93
58367;BME280;57745;42.524;12.052;2022-10-04T00:33:06;97112.94;;;24.07;46.35
58367;BME280;57745;42.524;12.052;2022-10-04T00:43:03;97128.56;;;24.10;45.95
58367;BME280;57745;42.524;12.052;2022-10-04T00:45:38;97129.56;;;24.07;46.04
58367;BME280;57745;42.524;12.052;2022-10-04T00:50:38;97134.34;;;24.06;46.05
58367;BME280;57745;42.524;12.052;2022-10-04T00:56:03;97132.31;;;24.01;46.15
58367;BME280;57745;42.524;12.052;2022-10-04T00:58:37;97132.31;;;24.01;46.15
58367;BME280;57745;42.524;12.052;2022-10-04T01:01:09;97132.06;;;24.05;46.13
58367;BME280;57745;42.524;12.052;2022-10-04T01:03:40;97126.53;;;24.05;46.18
58367;BME280;57745;42.524;12.052;2022-10-04T01:06:09;97124.75;;;24.02;46.21
58367;BME280;57745;42.524;12.052;2022-10-04T01:08:47;97132.06;;;24.05;46.28
58367;BME280;57745;42.524;12.052;2022-10-04T01:11:27;97125.28;;;24.06;46.03
58367;BME280;57745;42.524;12.052;2022-10-04T01:14:24;97127.78;;;24.04;45.98
58367;BME280;57745;42.524;12.052;2022-10-04T01:16:45;97122.25;;;23.98;46.12
58367;BME280;57745;42.524;12.052;2022-10-04T01:19:31;97119.47;;;23.98;46.22
58367;BME280;57745;42.524;12.052;2022-10-04T01:22:36;97116.19;;;23.99;46.23
58367;BME280;57745;42.524;12.052;2022-10-04T01:25:04;97113.16;;;23.97;46.33
58367;BME280;57745;42.524;12.052;2022-10-04T01:27:31;97122.75;;;23.96;46.10
58367;BME280;57745;42.524;12.052;2022-10-04T01:29:58;97114.44;;;23.96;46.26
58367;BME280;57745;42.524;12.052;2022-10-04T01:32:24;97111.16;;;24.04;46.05
58367;BME280;57745;42.524;12.052;2022-10-04T01:34:50;97107.88;;;23.99;46.08
58367;BME280;57745;42.524;12.052;2022-10-04T01:37:16;97111.13;;;23.92;46.34
58367;BME280;57745;42.524;12.052;2022-10-04T01:39:42;97108.13;;;23.96;46.27
58367;BME280;57745;42.524;12.052;2022-10-04T01:42:14;97112.91;;;23.95;46.48
58367;BME280;57745;42.524;12.052;2022-10-04T01:48:04;97108.13;;;23.96;46.25
58367;BME280;57745;42.524;12.052;2022-10-04T01:50:10;97114.66;;;23.93;46.14
58367;BME280;57745;42.524;12.052;2022-10-04T01:52:44;97111.13;;;23.92;46.41
58367;BME280;57745;42.524;12.052;2022-10-04T01:55:16;97110.34;;;23.86;46.27
58367;BME280;57745;42.524;12.052;2022-10-04T01:57:52;97107.34;;;23.90;46.40
58367;BME280;57745;42.524;12.052;2022-10-04T02:00:20;97105.09;;;23.94;46.22
58367;BME280;57745;42.524;12.052;2022-10-04T02:05:30;97099.53;;;23.88;46.47
58367;BME280;57745;42.524;12.052;2022-10-04T02:08:03;97103.56;;;23.87;46.45
58367;BME280;57745;42.524;12.052;2022-10-04T02:10:32;97107.34;;;23.84;46.44
58367;BME280;57745;42.524;12.052;2022-10-04T02:13:00;97105.06;;;23.88;46.40
58367;BME280;57745;42.524;12.052;2022-10-04T02:15:27;97113.13;;;23.86;46.10
58367;BME280;57745;42.524;12.052;2022-10-04T02:17:55;97105.31;;;23.85;46.35
58367;BME280;57745;42.524;12.052;2022-10-04T02:20:24;97107.38;;;23.95;46.09
58367;BME280;57745;42.524;12.052;2022-10-04T02:22:55;97105.56;;;23.87;46.34
58367;BME280;57745;42.524;12.052;2022-10-04T02:25:23;97107.34;;;23.84;46.32
58367;BME280;57745;42.524;12.052;2022-10-04T02:27:53;97108.84;;;23.85;46.23
58367;BME280;57745;42.524;12.052;2022-10-04T02:30:19;97108.59;;;23.89;46.15
58367;BME280;57745;42.524;12.052;2022-10-04T02:32:45;97108.63;;;23.94;46.09
58367;BME280;57745;42.524;12.052;2022-10-04T02:35:50;97101.31;;;23.91;46.15
58367;BME280;57745;42.524;12.052;2022-10-04T02:38:22;97098.53;;;23.86;46.34
58367;BME280;57745;42.524;12.052;2022-10-04T02:41:02;97093.22;;;23.82;46.15
58367;BME280;57745;42.524;12.052;2022-10-04T02:43:42;97097.78;;;23.85;46.31
58367;BME280;57745;42.524;12.052;2022-10-04T02:49:33;97094.47;;;23.81;46.21
58367;BME280;57745;42.524;12.052;2022-10-04T02:55:03;97105.28;;;23.79;46.56
58367;BME280;57745;42.524;12.052;2022-10-04T02:57:31;97107.81;;;23.77;46.45
58367;BME280;57745;42.524;12.052;2022-10-04T03:00:09;97101.81;;;23.84;46.14
58367;BME280;57745;42.524;12.052;2022-10-04T03:02:38;97112.84;;;23.73;46.37
58367;BME280;57745;42.524;12.052;2022-10-04T03:05:08;97106.59;;;23.84;46.24
58367;BME280;57745;42.524;12.052;2022-10-04T03:07:36;97107.03;;;23.77;46.27
58367;BME280;57745;42.524;12.052;2022-10-04T03:10:07;97096.25;;;23.84;46.12
58367;BME280;57745;42.524;12.052;2022-10-04T03:12:33;97104.81;;;23.86;46.04
58367;BME280;57745;42.524;12.052;2022-10-04T03:14:59;97109.59;;;23.80;46.12
58367;BME280;57745;42.524;12.052;2022-10-04T03:17:25;97108.78;;;23.74;46.25
58367;BME280;57745;42.524;12.052;2022-10-04T03:19:50;97104.75;;;23.75;46.11
58367;BME280;57745;42.524;12.052;2022-10-04T03:22:17;97110.84;;;23.79;46.00
58367;BME280;57745;42.524;12.052;2022-10-04T03:24:48;97112.09;;;23.73;46.26
58367;BME280;57745;42.524;12.052;2022-10-04T03:27:18;97106.53;;;23.73;46.33
58367;BME280;57745;42.524;12.052;2022-10-04T03:29:45;97114.59;;;23.76;46.07
58367;BME280;57745;42.524;12.052;2022-10-04T03:32:15;97112.56;;;23.71;46.12
58367;BME280;57745;42.524;12.052;2022-10-04T03:34:51;97112.84;;;23.73;46.22
58367;BME280;57745;42.524;12.052;2022-10-04T03:37:17;97110.06;;;23.73;46.35
58367;BME280;57745;42.524;12.052;2022-10-04T03:39:47;97125.94;;;23.73;46.11
58367;BME280;57745;42.524;12.052;2022-10-04T03:42:21;97126.44;;;23.71;46.34
58367;BME280;57745;42.524;12.052;2022-10-04T03:44:50;97118.38;;;23.73;46.17
58367;BME280;57745;42.524;12.052;2022-10-04T03:47:29;97123.06;;;23.56;46.38
58367;BME280;57745;42.524;12.052;2022-10-04T03:50:03;97126.66;;;23.68;45.99
58367;BME280;57745;42.524;12.052;2022-10-04T03:52:32;97125.13;;;23.67;46.18
58367;BME280;57745;42.524;12.052;2022-10-04T03:55:02;97132.94;;;23.68;45.99
58367;BME280;57745;42.524;12.052;2022-10-04T03:57:28;97135.44;;;23.66;45.96
58367;BME280;57745;42.524;12.052;2022-10-04T03:59:55;97127.91;;;23.67;46.04
58367;BME280;57745;42.524;12.052;2022-10-04T04:02:42;97137.97;;;23.64;46.15
58367;BME280;57745;42.524;12.052;2022-10-04T04:07:46;97132.91;;;23.57;46.37
58367;BME280;57745;42.524;12.052;2022-10-04T04:10:26;97137.97;;;23.64;45.94
58367;BME280;57745;42.524;12.052;2022-10-04T04:12:56;97136.69;;;23.65;46.16
58367;BME280;57745;42.524;12.052;2022-10-04T04:15:27;97140.47;;;23.62;46.19
58367;BME280;57745;42.524;12.052;2022-10-04T04:17:54;97141.97;;;23.57;46.22
58367;BME280;57745;42.524;12.052;2022-10-04T04:20:34;97138.97;;;23.67;45.99
58367;BME280;57745;42.524;12.052;2022-10-04T04:25:49;97143.22;;;23.56;46.39
58367;BME280;57745;42.524;12.052;2022-10-04T04:34:49;97155.06;;;23.62;45.95
58367;BME280;57745;42.524;12.052;2022-10-04T04:37:15;97155.06;;;23.57;46.14
58367;BME280;57745;42.524;12.052;2022-10-04T04:39:40;97155.75;;;23.52;46.27
58367;BME280;57745;42.524;12.052;2022-10-04T04:44:45;97152.00;;;23.55;46.00
58367;BME280;57745;42.524;12.052;2022-10-04T04:47:25;97148.44;;;23.49;45.96
58367;BME280;57745;42.524;12.052;2022-10-04T04:49:52;97153.53;;;23.56;46.13
58367;BME280;57745;42.524;12.052;2022-10-04T04:52:18;97157.56;;;23.55;46.01
58367;BME280;57745;42.524;12.052;2022-10-04T04:54:46;97151.44;;;23.45;46.53
58367;BME280;57745;42.524;12.052;2022-10-04T04:57:16;97159.25;;;23.47;46.48
58367;BME280;57745;42.524;12.052;2022-10-04T04:59:48;97158.00;;;23.48;46.27
58367;BME280;57745;42.524;12.052;2022-10-04T05:05:22;97167.06;;;23.48;46.07
58367;BME280;57745;42.524;12.052;2022-10-04T05:07:49;97170.06;;;23.45;46.07
58367;BME280;57745;42.524;12.052;2022-10-04T05:10:33;97177.06;;;23.40;46.50
58367;BME280;57745;42.524;12.052;2022-10-04T05:13:00;97181.06;;;23.39;46.37
58367;BME280;57745;42.524;12.052;2022-10-04T05:15:32;97187.91;;;23.44;46.33
58367;BME280;57745;42.524;12.052;2022-10-04T05:17:58;97180.69;;;23.52;45.88
58367;BME280;57745;42.524;12.052;2022-10-04T05:20:24;97183.16;;;23.50;45.84
58367;BME280;57745;42.524;12.052;2022-10-04T05:22:49;97188.19;;;23.46;45.80
58367;BME280;57745;42.524;12.052;2022-10-04T05:25:28;97186.88;;;23.41;46.29
58367;BME280;57745;42.524;12.052;2022-10-04T05:27:55;97191.16;;;23.37;46.30
58367;BME280;57745;42.524;12.052;2022-10-04T05:30:40;97192.88;;;23.34;46.41
58367;BME280;57745;42.524;12.052;2022-10-04T05:33:12;97196.41;;;23.35;46.32
58367;BME280;57745;42.524;12.052;2022-10-04T05:41:31;97198.94;;;23.38;46.27
58367;BME280;57745;42.524;12.052;2022-10-04T05:44:00;97200.91;;;23.32;46.26
58367;BME280;57745;42.524;12.052;2022-10-04T05:46:32;97201.41;;;23.31;46.25
58367;BME280;57745;42.524;12.052;2022-10-04T05:49:10;97214.72;;;23.26;46.27
58367;BME280;57745;42.524;12.052;2022-10-04T05:51:52;97212.28;;;23.40;45.97
58367;BME280;57745;42.524;12.052;2022-10-04T05:54:22;97213.03;;;23.35;46.42
58367;BME280;57745;42.524;12.052;2022-10-04T05:57:19;97221.59;;;23.37;46.13
58367;BME280;57745;42.524;12.052;2022-10-04T06:00:12;97231.38;;;23.32;46.32
58367;BME280;57745;42.524;12.052;2022-10-04T06:05:49;97242.47;;;23.38;46.29
58367;BME280;57745;42.524;12.052;2022-10-04T06:13:55;97239.00;;;23.43;46.13
58367;BME280;57745;42.524;12.052;2022-10-04T06:24:34;97256.34;;;23.43;46.38
58367;BME280;57745;42.524;12.052;2022-10-04T06:29:39;97261.63;;;23.41;46.40
58367;BME280;57745;42.524;12.052;2022-10-04T06:48:44;97281.59;;;23.51;46.28
58367;BME280;57745;42.524;12.052;2022-10-04T06:51:18;97286.44;;;23.56;46.24
58367;BME280;57745;42.524;12.052;2022-10-04T07:06:03;97304.03;;;23.53;46.18
58367;BME280;57745;42.524;12.052;2022-10-04T07:08:40;97307.06;;;23.55;46.31
58367;BME280;57745;42.524;12.052;2022-10-04T07:13:52;97310.88;;;23.57;45.93
58367;BME280;57745;42.524;12.052;2022-10-04T07:16:33;97317.38;;;22.36;48.61
58367;BME280;57745;42.524;12.052;2022-10-04T07:24:22;97318.78;;;22.92;46.83
58367;BME280;57745;42.524;12.052;2022-10-04T07:26:51;97323.25;;;23.10;46.61
58367;BME280;57745;42.524;12.052;2022-10-04T07:29:27;97324.53;;;23.15;46.63
58367;BME280;57745;42.524;12.052;2022-10-04T07:32:10;97324.06;;;23.16;46.68
58367;BME280;57745;42.524;12.052;2022-10-04T07:34:44;97323.09;;;23.19;46.40
58367;BME280;57745;42.524;12.052;2022-10-04T07:37:12;97320.41;;;23.31;46.20
58367;BME280;57745;42.524;12.052;2022-10-04T07:43:02;97333.28;;;23.34;46.30
58367;BME280;57745;42.524;12.052;2022-10-04T07:45:34;97338.66;;;23.43;46.33
58367;BME280;57745;42.524;12.052;2022-10-04T07:48:13;97334.81;;;23.35;46.26
58367;BME280;57745;42.524;12.052;2022-10-04T07:53:20;97330.63;;;23.45;46.05
58367;BME280;57745;42.524;12.052;2022-10-04T08:08:55;97338.38;;;23.41;46.56
58367;BME280;57745;42.524;12.052;2022-10-04T08:25:26;97359.81;;;23.46;46.73
58367;BME280;57745;42.524;12.052;2022-10-04T08:28:02;97364.81;;;23.42;47.10
58367;BME280;57745;42.524;12.052;2022-10-04T08:31:12;97364.72;;;23.31;47.34
58367;BME280;57745;42.524;12.052;2022-10-04T09:04:30;97379.91;;;23.41;47.86
58367;BME280;57745;42.524;12.052;2022-10-04T09:06:55;97376.25;;;23.29;48.04
58367;BME280;57745;42.524;12.052;2022-10-04T09:20:44;97369.47;;;23.04;49.22
58367;BME280;57745;42.524;12.052;2022-10-04T09:26:19;97375.13;;;23.41;47.84
58367;BME280;57745;42.524;12.052;2022-10-04T09:34:31;97367.47;;;23.05;49.67
58367;BME280;57745;42.524;12.052;2022-10-04T09:43:28;97366.88;;;23.21;49.34
58367;BME280;57745;42.524;12.052;2022-10-04T09:46:12;97359.16;;;23.31;48.79
58367;BME280;57745;42.524;12.052;2022-10-04T10:05:46;97365.84;;;23.18;49.38
58367;BME280;57745;42.524;12.052;2022-10-04T10:23:03;97372.31;;;23.36;48.74
58367;BME280;57745;42.524;12.052;2022-10-04T10:28:45;97364.22;;;23.58;48.13
58367;BME280;57745;42.524;12.052;2022-10-04T10:37:51;97383.63;;;23.58;48.32
58367;BME280;57745;42.524;12.052;2022-10-04T10:51:12;97380.41;;;23.65;48.31
58367;BME280;57745;42.524;12.052;2022-10-04T10:54:14;97381.63;;;23.64;48.20
58367;BME280;57745;42.524;12.052;2022-10-04T10:56:54;97381.63;;;23.64;48.06
58367;BME280;57745;42.524;12.052;2022-10-04T11:08:03;97379.41;;;23.68;48.42
58367;BME280;57745;42.524;12.052;2022-10-04T11:30:17;97380.84;;;23.58;49.02
58367;BME280;57745;42.524;12.052;2022-10-04T11:58:13;97364.25;;;23.63;48.99
58367;BME280;57745;42.524;12.052;2022-10-04T12:06:28;97357.53;;;23.70;48.67
58367;BME280;57745;42.524;12.052;2022-10-04T12:09:34;97355.03;;;23.72;48.59
58367;BME280;57745;42.524;12.052;2022-10-04T12:12:13;97362.31;;;23.70;48.93
58367;BME280;57745;42.524;12.052;2022-10-04T12:34:17;97345.38;;;23.62;49.18
58367;BME280;57745;42.524;12.052;2022-10-04T12:47:54;97338.72;;;23.48;49.95
58367;BME280;57745;42.524;12.052;2022-10-04T13:00:45;97347.22;;;23.71;48.88
58367;BME280;57745;42.524;12.052;2022-10-04T13:26:45;97331.38;;;23.71;49.19
58367;BME280;57745;42.524;12.052;2022-10-04T13:34:37;97338.91;;;23.71;49.06
58367;BME280;57745;42.524;12.052;2022-10-04T13:42:10;97347.22;;;23.71;49.05
58367;BME280;57745;42.524;12.052;2022-10-04T14:04:41;97343.47;;;23.74;49.51
58367;BME280;57745;42.524;12.052;2022-10-04T14:10:00;97345.22;;;23.77;49.37
58367;BME280;57745;42.524;12.052;2022-10-04T14:12:44;97347.50;;;23.78;49.47
58367;BME280;57745;42.524;12.052;2022-10-04T14:44:41;97366.72;;;23.87;49.79
58367;BME280;57745;42.524;12.052;2022-10-04T14:57:40;97355.13;;;23.83;49.75
58367;BME280;57745;42.524;12.052;2022-10-04T15:00:20;97360.66;;;23.83;49.88
58367;BME280;57745;42.524;12.052;2022-10-04T15:05:36;97370.72;;;23.86;49.80
58367;BME280;57745;42.524;12.052;2022-10-04T15:11:00;97374.03;;;23.90;50.08
58367;BME280;57745;42.524;12.052;2022-10-04T15:13:36;97368.78;;;23.92;49.66
58367;BME280;57745;42.524;12.052;2022-10-04T15:43:43;97376.19;;;23.75;50.34
58367;BME280;57745;42.524;12.052;2022-10-04T15:52:08;97390.78;;;23.70;50.74
58367;BME280;57745;42.524;12.052;2022-10-04T16:00:25;97379.31;;;23.57;50.98
58367;BME280;57745;42.524;12.052;2022-10-04T16:08:31;97382.84;;;23.57;50.81
58367;BME280;57745;42.524;12.052;2022-10-04T16:11:28;97385.72;;;23.69;50.67
58367;BME280;57745;42.524;12.052;2022-10-04T16:14:26;97391.75;;;23.67;50.59
58367;BME280;57745;42.524;12.052;2022-10-04T16:17:17;97387.09;;;23.53;51.12
58367;BME280;57745;42.524;12.052;2022-10-04T16:22:33;97394.13;;;23.54;51.11
58367;BME280;57745;42.524;12.052;2022-10-04T16:35:42;97403.50;;;23.56;51.26
58367;BME280;57745;42.524;12.052;2022-10-04T16:41:12;97407.81;;;23.63;50.93
58367;BME280;57745;42.524;12.052;2022-10-04T16:43:51;97412.88;;;23.64;50.77
58367;BME280;57745;42.524;12.052;2022-10-04T16:46:28;97418.88;;;23.63;50.83
58367;BME280;57745;42.524;12.052;2022-10-04T16:49:03;97414.38;;;23.66;50.72
58367;BME280;57745;42.524;12.052;2022-10-04T16:54:57;97424.44;;;23.63;50.69
58367;BME280;57745;42.524;12.052;2022-10-04T16:57:24;97423.91;;;23.59;50.94
58367;BME280;57745;42.524;12.052;2022-10-04T16:59:59;97431.50;;;23.64;50.72
58367;BME280;57745;42.524;12.052;2022-10-04T17:13:35;97444.09;;;23.65;50.67
58367;BME280;57745;42.524;12.052;2022-10-04T17:16:12;97441.59;;;23.67;50.63
58367;BME280;57745;42.524;12.052;2022-10-04T17:24:12;97463.47;;;23.65;50.68
58367;BME280;57745;42.524;12.052;2022-10-04T17:26:55;97464.72;;;23.64;50.75
58367;BME280;57745;42.524;12.052;2022-10-04T17:32:23;97463.44;;;23.59;50.85
58367;BME280;57745;42.524;12.052;2022-10-04T17:48:09;97468.22;;;23.59;50.88
58367;BME280;57745;42.524;12.052;2022-10-04T17:54:09;97470.16;;;23.53;51.14
58367;BME280;57745;42.524;12.052;2022-10-04T17:59:38;97480.25;;;23.15;51.81
58367;BME280;57745;42.524;12.052;2022-10-04T18:02:12;97484.97;;;22.89;55.39
58367;BME280;57745;42.524;12.052;2022-10-04T18:04:52;97488.84;;;23.17;54.66
58367;BME280;57745;42.524;12.052;2022-10-04T18:07:23;97493.13;;;23.39;53.99
58367;BME280;57745;42.524;12.052;2022-10-04T18:09:51;97500.31;;;23.51;53.26
58367;BME280;57745;42.524;12.052;2022-10-04T18:12:33;97509.97;;;23.81;52.70
58367;BME280;57745;42.524;12.052;2022-10-04T18:17:47;97506.97;;;24.11;51.54
58367;BME280;57745;42.524;12.052;2022-10-04T18:20:18;97506.31;;;24.21;51.22
58367;BME280;57745;42.524;12.052;2022-10-04T18:22:54;97510.66;;;24.28;50.95
58367;BME280;57745;42.524;12.052;2022-10-04T18:25:23;97513.03;;;24.41;50.36
58367;BME280;57745;42.524;12.052;2022-10-04T18:28:10;97510.03;;;24.44;50.35
58367;BME280;57745;42.524;12.052;2022-10-04T18:31:00;97516.63;;;24.47;50.36
58367;BME280;57745;42.524;12.052;2022-10-04T18:36:19;97524.97;;;24.52;49.98
58367;BME280;57745;42.524;12.052;2022-10-04T18:41:41;97521.84;;;24.39;50.29
58367;BME280;57745;42.524;12.052;2022-10-04T18:44:19;97525.69;;;24.47;50.15
58367;BME280;57745;42.524;12.052;2022-10-04T18:46:46;97528.75;;;24.55;50.11
58367;BME280;57745;42.524;12.052;2022-10-04T18:49:19;97528.72;;;24.49;50.05
58367;BME280;57745;42.524;12.052;2022-10-04T19:00:19;97530.78;;;24.54;49.88
58367;BME280;57745;42.524;12.052;2022-10-04T19:20:10;97536.31;;;24.54;49.78
58367;BME280;57745;42.524;12.052;2022-10-04T19:28:20;97545.63;;;24.51;49.60
58367;BME280;57745;42.524;12.052;2022-10-04T19:31:11;97548.66;;;24.53;49.63
58367;BME280;57745;42.524;12.052;2022-10-04T19:36:35;97559.75;;;24.53;49.59
58367;BME280;57745;42.524;12.052;2022-10-04T19:41:59;97556.19;;;24.47;49.81
58367;BME280;57745;42.524;12.052;2022-10-04T19:47:46;97565.09;;;24.57;49.59
58367;BME280;57745;42.524;12.052;2022-10-04T19:50:34;97569.53;;;24.49;49.71
58367;BME280;57745;42.524;12.052;2022-10-04T19:55:58;97576.84;;;24.46;49.80
58367;BME280;57745;42.524;12.052;2022-10-04T19:58:46;97578.38;;;24.47;49.68
58367;BME280;57745;42.524;12.052;2022-10-04T20:01:19;97580.38;;;24.47;49.63
58367;BME280;57745;42.524;12.052;2022-10-04T20:03:46;97578.63;;;24.49;49.58
58367;BME280;57745;42.524;12.052;2022-10-04T20:06:32;97587.97;;;24.52;49.55
58367;BME280;57745;42.524;12.052;2022-10-04T20:09:22;97590.75;;;24.52;49.60
58367;BME280;57745;42.524;12.052;2022-10-04T20:11:49;97588.53;;;24.56;49.33
58367;BME280;57745;42.524;12.052;2022-10-04T20:34:57;97599.81;;;24.47;49.21
58367;BME280;57745;42.524;12.052;2022-10-04T20:45:47;97606.34;;;24.49;49.15
58367;BME280;57745;42.524;12.052;2022-10-04T20:48:22;97609.59;;;24.42;49.16
58367;BME280;57745;42.524;12.052;2022-10-04T20:50:49;97613.88;;;24.43;49.07
58367;BME280;57745;42.524;12.052;2022-10-04T20:55:46;97616.38;;;24.41;49.07
58367;BME280;57745;42.524;12.052;2022-10-04T20:58:27;97622.19;;;24.43;48.96
58367;BME280;57745;42.524;12.052;2022-10-04T21:00:55;97622.41;;;24.40;49.13
58367;BME280;57745;42.524;12.052;2022-10-04T21:03:22;97619.03;;;24.30;49.36
58367;BME280;57745;42.524;12.052;2022-10-04T21:06:05;97632.22;;;24.35;49.21
58367;BME280;57745;42.524;12.052;2022-10-04T21:08:31;97632.75;;;24.39;49.09
58367;BME280;57745;42.524;12.052;2022-10-04T21:13:46;97638.28;;;24.39;49.19
58367;BME280;57745;42.524;12.052;2022-10-04T21:16:40;97635.84;;;24.47;48.93
58367;BME280;57745;42.524;12.052;2022-10-04T21:24:53;97645.31;;;24.34;48.67
58367;BME280;57745;42.524;12.052;2022-10-04T21:27:33;97648.72;;;24.24;48.94
58367;BME280;57745;42.524;12.052;2022-10-04T21:30:08;97648.78;;;24.29;48.87
58367;BME280;57745;42.524;12.052;2022-10-04T21:32:37;97647.03;;;24.32;48.52
58367;BME280;57745;42.524;12.052;2022-10-04T21:35:03;97647.53;;;24.30;48.79
58367;BME280;57745;42.524;12.052;2022-10-04T21:37:30;97649.75;;;24.26;48.74
58367;BME280;57745;42.524;12.052;2022-10-04T21:39:55;97654.13;;;24.33;48.73
58367;BME280;57745;42.524;12.052;2022-10-04T21:42:21;97650.91;;;24.40;48.46
58367;BME280;57745;42.524;12.052;2022-10-04T21:44:47;97655.16;;;24.36;48.45
58367;BME280;57745;42.524;12.052;2022-10-04T21:47:12;97648.28;;;24.31;48.63
58367;BME280;57745;42.524;12.052;2022-10-04T21:49:38;97647.81;;;24.32;48.58
58367;BME280;57745;42.524;12.052;2022-10-04T21:52:04;97648.34;;;24.37;48.42
58367;BME280;57745;42.524;12.052;2022-10-04T21:54:30;97644.19;;;24.26;48.70
58367;BME280;57745;42.524;12.052;2022-10-04T21:56:55;97646.78;;;24.30;48.61
58367;BME280;57745;42.524;12.052;2022-10-04T21:59:21;97647.31;;;24.34;48.57
58367;BME280;57745;42.524;12.052;2022-10-04T22:01:47;97662.63;;;24.29;48.65
58367;BME280;57745;42.524;12.052;2022-10-04T22:04:12;97664.16;;;24.30;48.57
58367;BME280;57745;42.524;12.052;2022-10-04T22:06:38;97660.69;;;24.36;48.63
58367;BME280;57745;42.524;12.052;2022-10-04T22:09:03;97660.63;;;24.30;48.69
58367;BME280;57745;42.524;12.052;2022-10-04T22:11:29;97663.63;;;24.26;48.63
58367;BME280;57745;42.524;12.052;2022-10-04T22:13:54;97658.63;;;24.30;48.42
58367;BME280;57745;42.524;12.052;2022-10-04T22:16:20;97670.19;;;24.29;48.27
58367;BME280;57745;42.524;12.052;2022-10-04T22:18:45;97666.44;;;24.32;48.15
58367;BME280;57745;42.524;12.052;2022-10-04T22:21:11;97667.22;;;24.32;48.09
58367;BME280;57745;42.524;12.052;2022-10-04T22:23:38;97667.97;;;24.33;47.91
58367;BME280;57745;42.524;12.052;2022-10-04T22:26:41;97669.25;;;24.38;48.03
58367;BME280;57745;42.524;12.052;2022-10-04T22:29:00;97672.00;;;24.32;47.90
58367;BME280;57745;42.524;12.052;2022-10-04T22:31:27;97671.66;;;24.24;48.26
58367;BME280;57745;42.524;12.052;2022-10-04T22:33:54;97672.97;;;24.29;48.31
58367;BME280;57745;42.524;12.052;2022-10-04T22:36:27;97673.72;;;24.29;47.99
58367;BME280;57745;42.524;12.052;2022-10-04T22:41:36;97663.41;;;24.30;48.03
58367;BME280;57745;42.524;12.052;2022-10-04T22:46:47;97670.19;;;24.29;47.91
58367;BME280;57745;42.524;12.052;2022-10-04T22:49:16;97674.50;;;24.30;47.74
58367;BME280;57745;42.524;12.052;2022-10-04T22:51:46;97671.94;;;24.26;47.82
58367;BME280;57745;42.524;12.052;2022-10-04T22:54:16;97664.94;;;24.31;47.86
58367;BME280;57745;42.524;12.052;2022-10-04T22:56:41;97668.19;;;24.29;47.54
58367;BME280;57745;42.524;12.052;2022-10-04T22:59:11;97667.63;;;24.25;47.70
58367;BME280;57745;42.524;12.052;2022-10-04T23:01:38;97660.31;;;24.22;47.88
58367;BME280;57745;42.524;12.052;2022-10-04T23:04:31;97668.88;;;24.24;47.71
58367;BME280;57745;42.524;12.052;2022-10-04T23:06:55;97666.09;;;24.24;47.85
58367;BME280;57745;42.524;12.052;2022-10-04T23:09:21;97667.84;;;24.22;48.28
58367;BME280;57745;42.524;12.052;2022-10-04T23:11:46;97668.19;;;24.29;47.80
58367;BME280;57745;42.524;12.052;2022-10-04T23:14:12;97661.81;;;24.23;47.88
58367;BME280;57745;42.524;12.052;2022-10-04T23:16:37;97665.13;;;24.27;47.91
58367;BME280;57745;42.524;12.052;2022-10-04T23:19:16;97663.09;;;24.22;48.12
58367;BME280;57745;42.524;12.052;2022-10-04T23:21:47;97671.03;;;24.15;48.48
58367;BME280;57745;42.524;12.052;2022-10-04T23:26:44;97674.34;;;24.19;48.32
58367;BME280;57745;42.524;12.052;2022-10-04T23:29:36;97681.13;;;24.18;48.31
58367;BME280;57745;42.524;12.052;2022-10-04T23:32:09;97682.66;;;24.19;48.31
58367;BME280;57745;42.524;12.052;2022-10-04T23:34:36;97689.72;;;24.20;48.16
58367;BME280;57745;42.524;12.052;2022-10-04T23:37:12;97680.47;;;24.23;48.02
58367;BME280;57745;42.524;12.052;2022-10-04T23:39:38;97682.94;;;24.21;47.80
58367;BME280;57745;42.524;12.052;2022-10-04T23:42:24;97684.47;;;24.22;47.93
58367;BME280;57745;42.524;12.052;2022-10-04T23:45:00;97689.03;;;24.25;47.96
58367;BME280;57745;42.524;12.052;2022-10-04T23:47:35;97693.00;;;24.18;47.99
58367;BME280;57745;42.524;12.052;2022-10-04T23:50:06;97695.97;;;24.15;48.10
58367;BME280;57745;42.524;12.052;2022-10-04T23:52:41;97692.72;;;24.16;48.34
58367;BME280;57745;42.524;12.052;2022-10-04T23:55:28;97698.72;;;24.15;48.02
58367;BME280;57745;42.524;12.052;2022-10-04T23:57:55;97703.03;;;24.16;48.01
